Enterprise, KS

7:04 AM CDT on August 25, 2019 (GMT -0500)
Home | | Change Station
Active Advisory: Heat Advisory

Elev 1296 ft 38.89 °N, 97.18 °W | Updated 14 seconds ago

Rain
Rain
64.6 °F
Feels Like 64.6 °F
N
3.6
Wind Variable Wind from ENE
Gusts 4.5 mph

Today
High -- | Low -- °F
--% Chance of Precip.
Yesterday
High -- | Low -- °F
Precip. -- in
Pressure 29.85 in
Visibility 10.0 miles
Clouds Mostly Cloudy 1100 ft
Dew Point 64 °F
Humidity 99%
Rainfall 1.23 in
Snow Depth Not available.
6:50 AM 8:09 PM
Waning Crescent, 31% visible
SPECI KFRI 251134Z AUTO 00000KT 10SM BKN011 19/18 A2987 RMK AO2 DZB22E34 SLP107
Pressure 29.85 in
Visibility 10.0 miles
Clouds Mostly Cloudy 1100 ft
Dew Point 64 °F
Humidity 99%
Rainfall 1.23 in
Snow Depth Not available.
6:50 AM 8:09 PM
Waning Crescent, 31% visible
SPECI KFRI 251134Z AUTO 00000KT 10SM BKN011 19/18 A2987 RMK AO2 DZB22E34 SLP107

Get Your Daily Forecast Email!

Thanks for signing up!

Be on the lookout for a verification email in your inbox.

You'll start receiving severe weather alerts in your inbox..

×

10-Day Weather Forecast

Almanac

Astronomy

Aug. 25, 2019 Rise Set
Actual Time
Civil Twilight
Nautical Twilight
Astronomical Twilight
Moon
Length of Visible Light
Length of Day
Tomorrow will be .
, % of the Moon is Illuminated

Today's Extremes

State Highs State Lows

Community

WunderPhotos

Category 6

Welcome to Category 6. This is the collective home for Weather Underground's featured writeups by Dr. Jeff Masters (right), Bob Henson (left), Chris Burt, and other regular contributors.

Nearby

Air Quality

  Air Quality AQ Index Pollutant
Not available.

Snow Depth

Station Depth Elevation

Earthquake Activity

City Distance Mag. Time & Date
Minimum magnitude displayed is 2.5.

Coastal Water Temperatures

Place Temperature

Stations

Nearby Weather Stations

Station Location Temp. Windchill Dew Point Humidity Wind Precip. Elev Updated Type
                   

Watches & Warnings

Heat Advisory
Issued: 9:34 AM CDT Aug. 19, 2019 – National Weather Service

... Heat advisory remains in effect from 1 PM this afternoon to
8 PM CDT this evening...
... Heat advisory remains in effect from noon to 9 PM CDT
Tuesday...

* temperature... hot and humid conditions are expected this
afternoon and Tuesday, resulting in heat index values ranging
from around 105 to 110 degrees.

* Impacts... the combination of hot temperatures and high
humidity will result in dangerous conditions where
heat-related illnesses are possible. The very Young, the
elderly, and those without access to air conditioning will be
especially vulnerable.

Precautionary/preparedness actions...

A heat advisory means that a period of hot weather is expected,
during which heat illnesses are possible. Limit your outdoor
activities during this time, stay in an air-conditioned building,
and check up on relatives and neighbors. While outside, drink
plenty of water, wear light and loose fitting clothing, and
reduce strenuous activities.